createdAt,value
2023-03-07T00:02:05.632Z,-2.10
2023-03-07T00:17:07.281Z,-2.05
2023-03-07T00:32:08.346Z,-1.97
2023-03-07T00:47:08.919Z,-1.69
2023-03-07T01:02:09.514Z,-1.40
2023-03-07T01:17:10.123Z,-1.22
2023-03-07T01:32:10.932Z,-1.19
2023-03-07T01:47:11.798Z,-0.99
2023-03-07T02:02:11.987Z,-0.91
2023-03-07T02:17:12.565Z,-0.64
2023-03-07T02:32:13.259Z,-0.43
2023-03-07T02:47:13.787Z,-0.16
2023-03-07T03:02:14.893Z,-0.10
2023-03-07T03:17:15.427Z,0.08
2023-03-07T03:32:16.062Z,0.17
2023-03-07T03:47:16.316Z,0.28
2023-03-07T04:02:16.994Z,0.51
2023-03-07T04:17:17.524Z,0.57
2023-03-07T04:32:18.521Z,0.76
2023-03-07T04:47:18.662Z,0.93
2023-03-07T05:02:19.659Z,1.00
2023-03-07T05:17:19.868Z,1.02
2023-03-07T05:32:20.837Z,0.98
2023-03-07T05:47:20.729Z,0.96
2023-03-07T06:02:21.472Z,1.08
2023-03-07T06:17:22.387Z,1.04
2023-03-07T06:32:23.025Z,1.24
2023-03-07T06:47:23.970Z,1.45
2023-03-07T07:02:23.807Z,1.59
2023-03-07T07:17:24.702Z,1.88
2023-03-07T07:32:26.367Z,2.00
2023-03-07T07:47:26.462Z,2.17
2023-03-07T08:02:26.963Z,2.49
2023-03-07T08:17:27.493Z,2.57
2023-03-07T08:32:28.562Z,2.85
2023-03-07T08:47:28.178Z,3.06
2023-03-07T09:02:28.252Z,3.55
2023-03-07T09:17:28.867Z,3.75
2023-03-07T09:32:28.996Z,4.26
2023-03-07T09:47:29.522Z,4.77
2023-03-07T10:02:29.664Z,5.18
2023-03-07T10:17:30.671Z,5.36
2023-03-07T10:32:30.861Z,5.30
2023-03-07T10:47:30.956Z,5.18
2023-03-07T11:02:31.936Z,5.46
2023-03-07T11:17:31.690Z,5.43
2023-03-07T11:32:32.659Z,5.39
2023-03-07T11:47:32.334Z,5.31
2023-03-07T12:02:32.872Z,5.04
2023-03-07T12:17:32.555Z,4.82
2023-03-07T12:32:32.894Z,4.42
2023-03-07T12:47:33.138Z,4.00
2023-03-07T13:02:32.801Z,3.88
2023-03-07T13:17:32.956Z,3.83
2023-03-07T13:32:33.053Z,3.80
2023-03-07T13:47:33.187Z,3.88
2023-03-07T14:02:33.180Z,4.11
2023-03-07T14:17:33.305Z,4.18
2023-03-07T14:32:33.830Z,4.12
2023-03-07T14:47:33.489Z,4.24
2023-03-07T15:02:33.558Z,4.33
2023-03-07T15:17:34.222Z,4.41
2023-03-07T15:32:34.798Z,4.32
2023-03-07T15:47:35.834Z,4.27
2023-03-07T16:02:36.562Z,4.26
2023-03-07T16:17:37.608Z,4.09
2023-03-07T16:32:38.161Z,3.97
2023-03-07T16:47:38.888Z,3.70
2023-03-07T17:02:39.406Z,3.57
2023-03-07T17:17:39.985Z,3.33
2023-03-07T17:32:40.576Z,3.15
2023-03-07T17:47:41.235Z,2.99
2023-03-07T18:02:41.339Z,2.82
2023-03-07T18:17:48.228Z,2.75
2023-03-07T18:32:47.543Z,2.61
2023-03-07T18:47:48.488Z,2.48
2023-03-07T19:02:49.109Z,2.48
2023-03-07T19:17:49.304Z,2.41
2023-03-07T19:32:50.021Z,2.16
2023-03-07T19:47:50.491Z,2.03
2023-03-07T20:02:51.225Z,1.98
2023-03-07T20:17:51.762Z,1.80
2023-03-07T20:32:52.754Z,1.66
2023-03-07T20:47:52.937Z,1.59
2023-03-07T21:03:05.124Z,1.60
2023-03-07T21:17:59.215Z,1.42
2023-03-07T21:32:59.741Z,1.36
2023-03-07T21:48:00.792Z,1.26
2023-03-07T22:03:01.427Z,1.15
2023-03-07T22:18:01.616Z,1.08
2023-03-07T22:33:02.204Z,1.04
2023-03-07T22:48:02.861Z,1.08
2023-03-07T23:03:03.615Z,0.98
2023-03-07T23:18:04.001Z,0.84
2023-03-07T23:33:04.604Z,0.70
2023-03-07T23:48:05.645Z,0.44
